Time;durP1;ratioP1;P1;durP2;ratioP2;P2;SDS_P1;SDS_P2;PMS_P1;PMS_P2;Temp;Humidity;BMP_temperature;BMP_pressure;BME280_temperature;BME280_humidity;BME280_pressure;Samples;Min_cycle;Max_cycle;Signal;HPM_P1;HPM_P2
2022/02/16 00:03:02;;;;;;;2.13;1.25;;;;;;;10.28;100.00;97577.69;4976226;28;20058;-85
2022/02/16 00:06:05;;;;;;;2.97;0.93;;;;;;;10.29;100.00;97573.63;4975680;28;20053;-86
2022/02/16 00:09:08;;;;;;;4.72;0.90;;;;;;;10.36;100.00;97578.56;4956388;29;20413;-87
2022/02/16 00:12:12;;;;;;;1.00;0.75;;;;;;;10.46;100.00;97560.19;4956423;28;20504;-86
2022/02/16 00:15:15;;;;;;;0.40;0.40;;;;;;;10.52;100.00;97541.41;4956220;29;20062;-87
2022/02/16 00:18:19;;;;;;;0.50;0.20;;;;;;;10.59;100.00;97543.53;4973452;28;20421;-86
2022/02/16 00:21:22;;;;;;;0.50;0.10;;;;;;;10.61;100.00;97537.47;4975787;28;20066;-86
2022/02/16 00:24:26;;;;;;;4.78;0.30;;;;;;;10.56;100.00;97524.38;4975527;28;20508;-87
2022/02/16 00:27:29;;;;;;;0.20;0.10;;;;;;;10.56;100.00;97519.56;4975689;28;20057;-87
2022/02/16 00:30:33;;;;;;;0.45;0.20;;;;;;;10.60;100.00;97517.22;4974369;28;20504;-86
2022/02/16 00:33:36;;;;;;;6.28;1.10;;;;;;;10.67;100.00;97515.84;4974369;28;20054;-86
2022/02/16 00:36:41;;;;;;;0.20;0.20;;;;;;;10.70;100.00;97511.25;4974578;28;20058;-87
2022/02/16 00:39:44;;;;;;;0.70;0.45;;;;;;;10.76;100.00;97507.06;4974378;28;20053;-89
2022/02/16 00:42:47;;;;;;;0.60;0.10;;;;;;;10.80;100.00;97498.41;4974764;28;20057;-89
2022/02/16 00:45:51;;;;;;;0.40;0.40;;;;;;;10.75;100.00;97493.66;4975037;28;20050;-89
2022/02/16 00:48:55;;;;;;;6.70;0.45;;;;;;;10.81;100.00;97483.94;4857907;28;20074;-89
2022/02/16 00:51:58;;;;;;;0.10;0.10;;;;;;;10.87;100.00;97475.50;4975772;28;20065;-88
2022/02/16 00:55:01;;;;;;;0.43;0.30;;;;;;;10.96;100.00;97452.78;4975269;28;20065;-90
2022/02/16 00:58:05;;;;;;;1.30;0.52;;;;;;;10.94;100.00;97458.88;4974829;28;20057;-89
2022/02/16 01:01:09;;;;;;;1.58;0.60;;;;;;;11.01;100.00;97451.91;4975505;28;20413;-89
2022/02/16 01:04:13;;;;;;;3.83;0.40;;;;;;;11.10;100.00;97443.13;4974788;28;20050;-88
2022/02/16 01:07:16;;;;;;;2.05;1.30;;;;;;;11.13;100.00;97428.13;4974717;28;20073;-89
2022/02/16 01:10:20;;;;;;;0.95;0.65;;;;;;;11.05;100.00;97419.66;4975367;28;20054;-88
2022/02/16 01:13:26;;;;;;;0.35;0.25;;;;;;;11.11;100.00;97422.34;4974572;28;20058;-89
2022/02/16 01:16:30;;;;;;;0.52;0.32;;;;;;;11.15;100.00;97406.06;4974415;28;20054;-88
2022/02/16 01:19:33;;;;;;;2.50;0.40;;;;;;;11.25;100.00;97409.88;4975014;28;20073;-88
2022/02/16 01:22:37;;;;;;;6.05;0.75;;;;;;;11.28;100.00;97398.41;4974522;28;20062;-88
2022/02/16 01:25:40;;;;;;;3.10;0.20;;;;;;;11.28;100.00;97386.53;4973740;28;20050;-88
2022/02/16 01:28:43;;;;;;;1.85;0.35;;;;;;;11.27;100.00;97396.91;4974614;28;20054;-89
2022/02/16 01:31:47;;;;;;;3.72;0.73;;;;;;;11.34;100.00;97382.31;4974650;28;20073;-88
2022/02/16 01:34:50;;;;;;;0.90;0.40;;;;;;;11.39;100.00;97369.56;4974501;28;20062;-88
2022/02/16 01:37:53;;;;;;;0.10;0.10;;;;;;;11.39;100.00;97369.56;4974686;28;20058;-87
2022/02/16 01:40:57;;;;;;;0.65;0.10;;;;;;;11.36;100.00;97381.78;4974391;28;20054;-88
2022/02/16 01:44:00;;;;;;;0.45;0.38;;;;;;;11.36;100.00;97370.63;4973637;28;20058;-87
2022/02/16 01:47:05;;;;;;;0.30;0.20;;;;;;;11.35;100.00;97369.88;4973267;28;20512;-86
2022/02/16 01:50:09;;;;;;;0.65;0.20;;;;;;;11.38;100.00;97379.19;4973930;28;20560;-88
2022/02/16 01:53:12;;;;;;;0.70;0.20;;;;;;;11.44;100.00;97383.34;4973197;28;20053;-87
2022/02/16 01:56:16;;;;;;;0.52;0.30;;;;;;;11.49;100.00;97383.78;4974172;28;20070;-87
2022/02/16 01:59:21;;;;;;;1.15;0.30;;;;;;;11.50;100.00;97372.06;4973615;28;20050;-88
2022/02/16 02:02:25;;;;;;;0.43;0.32;;;;;;;11.58;100.00;97374.94;4974418;28;20062;-87
2022/02/16 02:05:28;;;;;;;2.55;0.22;;;;;;;11.60;100.00;97375.91;4973648;28;20054;-87
2022/02/16 02:08:31;;;;;;;0.20;0.10;;;;;;;11.70;100.00;97373.41;4973556;28;20049;-88
2022/02/16 02:11:34;;;;;;;0.20;0.20;;;;;;;11.65;100.00;97365.91;4974365;28;20053;-87
2022/02/16 02:14:38;;;;;;;0.50;0.20;;;;;;;11.66;100.00;97373.72;4973751;28;20520;-87
2022/02/16 02:17:42;;;;;;;0.10;0.00;;;;;;;11.76;100.00;97362.91;4973638;28;20054;-87
2022/02/16 02:20:45;;;;;;;1.55;0.75;;;;;;;11.76;100.00;97369.19;4974057;28;20054;-88
2022/02/16 02:23:51;;;;;;;0.25;0.10;;;;;;;11.79;100.00;97373.69;4973691;28;20429;-86
2022/02/16 02:26:54;;;;;;;4.30;1.27;;;;;;;11.83;100.00;97374.09;4973815;28;20062;-87
2022/02/16 02:29:58;;;;;;;0.25;0.10;;;;;;;11.87;100.00;97366.13;4974349;28;20049;-87
2022/02/16 02:33:01;;;;;;;0.20;0.20;;;;;;;11.92;100.00;97365.25;4973179;28;20057;-86
2022/02/16 02:36:06;;;;;;;0.10;0.10;;;;;;;11.97;100.00;97364.38;4973731;28;20054;-87
2022/02/16 02:39:10;;;;;;;0.43;0.20;;;;;;;12.02;100.00;97369.06;4974139;28;20054;-87
2022/02/16 02:42:14;;;;;;;0.75;0.15;;;;;;;12.09;100.00;97362.78;4977355;28;20054;-87
2022/02/16 02:45:17;;;;;;;0.32;0.22;;;;;;;12.26;100.00;97367.22;4977136;28;20057;-86
2022/02/16 02:48:25;;;;;;;0.10;0.10;;;;;;;12.35;100.00;97375.06;4976647;28;20050;-86
2022/02/16 02:51:28;;;;;;;1.67;0.40;;;;;;;12.36;100.00;97379.38;4977605;28;20045;-87
2022/02/16 02:54:32;;;;;;;0.93;0.13;;;;;;;12.46;100.00;97360.81;4976812;28;20062;-86
2022/02/16 02:57:35;;;;;;;1.30;0.30;;;;;;;12.45;100.00;97353.75;4976700;28;20496;-86
2022/02/16 03:00:40;;;;;;;0.65;0.32;;;;;;;12.50;100.00;97366.78;4976780;28;20054;-87
2022/02/16 03:03:43;;;;;;;0.32;0.10;;;;;;;12.55;100.00;97374.28;4977212;28;20077;-86
2022/02/16 03:06:47;;;;;;;0.10;0.03;;;;;;;12.58;100.00;97378.78;4976240;28;20045;-87
2022/02/16 03:09:50;;;;;;;0.13;0.00;;;;;;;12.73;100.00;97367.69;4977374;28;20711;-86
2022/02/16 03:12:53;;;;;;;0.10;0.00;;;;;;;12.86;100.00;97357.13;4976474;28;20069;-87
2022/02/16 03:15:57;;;;;;;0.10;0.10;;;;;;;12.90;100.00;97354.00;4976648;28;20053;-87
2022/02/16 03:19:01;;;;;;;0.20;0.20;;;;;;;13.08;100.00;97347.38;4977131;28;20053;-86
2022/02/16 03:22:04;;;;;;;0.20;0.20;;;;;;;13.21;100.00;97355.63;4976173;28;20119;-86
2022/02/16 03:25:10;;;;;;;0.10;0.10;;;;;;;13.37;100.00;97367.59;4976252;28;20126;-86
2022/02/16 03:28:14;;;;;;;0.30;0.30;;;;;;;13.41;100.00;97354.75;4975956;28;20054;-85
2022/02/16 03:31:17;;;;;;;0.47;0.30;;;;;;;13.46;100.00;97353.84;4975864;28;20070;-86
2022/02/16 03:34:20;;;;;;;0.10;0.00;;;;;;;13.48;100.00;97356.81;4977041;28;20393;-85
2022/02/16 03:37:23;;;;;;;0.10;0.10;;;;;;;13.46;100.00;97353.84;4976042;28;20058;-86
2022/02/16 03:40:27;;;;;;;0.10;0.08;;;;;;;13.40;100.00;97350.47;4975885;28;20049;-85
2022/02/16 03:43:31;;;;;;;0.05;0.00;;;;;;;13.33;100.00;97351.19;4975834;28;20061;-86
2022/02/16 03:46:35;;;;;;;0.10;0.00;;;;;;;13.41;100.00;97365.94;4975643;28;20054;-85
2022/02/16 03:49:38;;;;;;;0.10;0.00;;;;;;;13.37;100.00;97373.94;4975768;28;20070;-86
2022/02/16 03:52:41;;;;;;;0.10;0.10;;;;;;;13.39;100.00;97381.75;4975542;28;20057;-86
2022/02/16 03:55:45;;;;;;;0.00;0.00;;;;;;;13.39;100.00;97382.53;4975842;28;20488;-85
2022/02/16 03:58:49;;;;;;;0.30;0.20;;;;;;;13.42;100.00;97389.06;4975518;28;20058;-86
2022/02/16 04:01:52;;;;;;;0.20;0.20;;;;;;;13.40;100.00;97392.41;4976212;28;20057;-86
2022/02/16 04:04:56;;;;;;;0.20;0.10;;;;;;;13.31;100.00;97392.19;4975412;28;20049;-86
2022/02/16 04:07:59;;;;;;;0.70;0.10;;;;;;;13.37;100.00;97389.97;4976132;28;20069;-85
2022/02/16 04:11:04;;;;;;;0.25;0.25;;;;;;;13.32;100.00;97382.50;4975296;28;20053;-86
2022/02/16 04:14:07;;;;;;;0.20;0.20;;;;;;;13.25;100.00;97392.38;4975010;28;20404;-86
2022/02/16 04:17:10;;;;;;;0.30;0.30;;;;;;;13.31;100.00;97400.56;4975427;28;20405;-85
2022/02/16 04:20:14;;;;;;;0.20;0.10;;;;;;;13.27;100.00;97400.94;4975936;28;20054;-86
2022/02/16 04:23:17;;;;;;;1.13;0.47;;;;;;;13.27;100.00;97402.97;4975897;28;20058;-86
2022/02/16 04:26:21;;;;;;;0.40;0.25;;;;;;;13.21;100.00;97410.78;4974784;28;20058;-86
2022/02/16 04:29:24;;;;;;;0.10;0.10;;;;;;;13.22;100.00;97407.44;4975740;28;20050;-85
2022/02/16 04:32:28;;;;;;;0.20;0.05;;;;;;;13.24;100.00;97404.06;4974903;28;20504;-86
2022/02/16 04:35:31;;;;;;;0.43;0.13;;;;;;;13.25;100.00;97406.34;4975079;28;20062;-86
2022/02/16 04:38:35;;;;;;;0.05;0.05;;;;;;;13.30;100.00;97408.19;4974149;28;20053;-86
2022/02/16 04:41:38;;;;;;;0.20;0.20;;;;;;;13.35;100.00;97404.50;4974857;28;20057;-86
2022/02/16 04:44:42;;;;;;;0.20;0.20;;;;;;;13.50;100.00;97421.31;4974517;28;20134;-84
2022/02/16 04:47:45;;;;;;;0.25;0.10;;;;;;;13.53;100.00;97409.03;4975800;28;20057;-85
2022/02/16 04:50:48;;;;;;;0.10;0.00;;;;;;;13.44;100.00;97431.94;4975288;28;20841;-85
2022/02/16 04:53:52;;;;;;;0.32;0.32;;;;;;;13.41;100.00;97419.06;4974358;28;20057;-86
2022/02/16 04:56:55;;;;;;;0.10;0.10;;;;;;;13.49;100.00;97413.50;4975218;28;20073;-86
2022/02/16 04:59:59;;;;;;;0.10;0.10;;;;;;;13.43;100.00;97407.31;4975068;28;20050;-85
2022/02/16 05:03:03;;;;;;;0.63;0.15;;;;;;;13.36;100.00;97411.56;4974355;28;20054;-86
2022/02/16 05:06:06;;;;;;;0.00;0.00;;;;;;;13.32;100.00;97413.97;4974052;28;20054;-86
2022/02/16 05:09:09;;;;;;;4.47;0.20;;;;;;;13.22;100.00;97415.81;4974378;28;20058;-86
2022/02/16 05:12:14;;;;;;;6.82;0.68;;;;;;;13.11;100.00;97409.78;4974697;28;20062;-86
2022/02/16 05:15:17;;;;;;;3.15;0.25;;;;;;;13.07;100.00;97390.59;4974970;28;20058;-85
2022/02/16 05:18:20;;;;;;;0.10;0.10;;;;;;;13.00;100.00;97396.88;4974831;28;20412;-85
2022/02/16 05:21:24;;;;;;;0.10;0.00;;;;;;;12.92;100.00;97401.66;4974011;28;20057;-85
2022/02/16 05:24:28;;;;;;;0.10;0.10;;;;;;;12.90;100.00;97404.28;4973977;28;20058;-85
2022/02/16 05:27:31;;;;;;;2.88;0.65;;;;;;;12.92;100.00;97401.66;4974745;28;20061;-85
2022/02/16 05:30:35;;;;;;;8.85;1.50;;;;;;;12.80;100.00;97420.03;4973818;28;20053;-85
2022/02/16 05:33:38;;;;;;;0.10;0.00;;;;;;;12.64;100.00;97415.66;4974536;28;20066;-85
2022/02/16 05:36:43;;;;;;;0.10;0.00;;;;;;;12.55;100.00;97418.94;4974391;28;20058;-85
2022/02/16 05:39:46;;;;;;;2.17;0.40;;;;;;;12.56;100.00;97418.38;4974557;28;20058;-85
2022/02/16 05:42:50;;;;;;;0.57;0.10;;;;;;;12.54;100.00;97423.78;4973997;28;20413;-85
2022/02/16 05:45:53;;;;;;;0.00;0.00;;;;;;;12.54;100.00;97439.78;4973719;28;20085;-85
2022/02/16 05:48:56;;;;;;;1.38;0.75;;;;;;;12.75;100.00;97448.88;4973836;28;20070;-85
2022/02/16 05:51:59;;;;;;;0.00;0.00;;;;;;;12.73;100.00;97468.22;4972653;28;20109;-85
2022/02/16 05:55:04;;;;;;;0.10;0.10;;;;;;;12.66;100.00;97478.03;4974031;28;20053;-84
2022/02/16 05:58:07;;;;;;;0.00;0.00;;;;;;;12.60;100.00;97496.22;4974096;28;20057;-85
2022/02/16 06:01:11;;;;;;;0.10;0.00;;;;;;;12.64;100.00;97489.00;4973406;28;20397;-85
2022/02/16 06:04:16;;;;;;;0.13;0.13;;;;;;;12.68;100.00;97480.28;4973994;28;20504;-85
2022/02/16 06:07:19;;;;;;;0.00;0.00;;;;;;;12.75;100.00;97499.13;4973229;28;20049;-85
2022/02/16 06:10:23;;;;;;;0.10;0.00;;;;;;;12.75;100.00;97510.31;4973297;28;20050;-85
2022/02/16 06:13:26;;;;;;;0.85;0.25;;;;;;;12.82;100.00;97506.84;4973848;28;20054;-85
2022/02/16 06:16:29;;;;;;;0.88;0.25;;;;;;;12.91;100.00;97514.69;4977159;28;20045;-84
2022/02/16 06:19:33;;;;;;;0.35;0.20;;;;;;;12.93;100.00;97509.31;4977885;28;20415;-84
2022/02/16 06:22:36;;;;;;;0.10;0.10;;;;;;;12.87;100.00;97501.09;4976822;28;20054;-85
2022/02/16 06:25:39;;;;;;;0.00;0.00;;;;;;;12.97;100.00;97486.63;4976804;28;20123;-82
2022/02/16 06:28:43;;;;;;;0.10;0.05;;;;;;;13.00;100.00;97503.03;4976573;28;20058;-83
2022/02/16 06:31:46;;;;;;;0.30;0.10;;;;;;;13.08;100.00;97520.63;4976556;28;20544;-83
2022/02/16 06:34:49;;;;;;;7.13;0.30;;;;;;;12.94;100.00;97522.00;4975481;28;20050;-83
2022/02/16 06:37:53;;;;;;;0.25;0.22;;;;;;;12.79;100.00;97544.22;4976904;28;20057;-84
2022/02/16 06:40:57;;;;;;;0.50;0.30;;;;;;;12.70;100.00;97551.06;4964035;28;20054;-83
2022/02/16 06:44:00;;;;;;;9.57;0.88;;;;;;;12.75;100.00;97541.03;4974726;28;20420;-85
2022/02/16 06:47:04;;;;;;;11.02;2.25;;;;;;;12.76;100.00;97525.75;4975781;28;20053;-84
2022/02/16 06:50:07;;;;;;;1.15;0.47;;;;;;;12.81;100.00;97524.88;4975810;28;20061;-84
2022/02/16 06:53:11;;;;;;;10.20;2.88;;;;;;;12.83;100.00;97516.69;4977474;28;20062;-87
2022/02/16 06:56:14;;;;;;;1.65;0.80;;;;;;;12.84;100.00;97521.00;4976974;28;20408;-87
2022/02/16 06:59:17;;;;;;;7.32;0.82;;;;;;;12.89;100.00;97528.47;4977945;28;20057;-86
2022/02/16 07:02:20;;;;;;;11.23;3.17;;;;;;;13.03;100.00;97529.88;4977708;28;20054;-85
2022/02/16 07:05:24;;;;;;;4.53;1.15;;;;;;;13.00;100.00;97530.22;4976648;28;20077;-85
2022/02/16 07:08:28;;;;;;;4.47;0.43;;;;;;;12.89;100.00;97520.84;4977279;28;20065;-86
2022/02/16 07:11:31;;;;;;;9.23;1.15;;;;;;;12.78;100.00;97517.59;4976651;28;20437;-85
2022/02/16 07:14:34;;;;;;;5.35;1.10;;;;;;;12.76;100.00;97495.03;4977042;28;20057;-84
2022/02/16 07:17:40;;;;;;;0.35;0.17;;;;;;;12.80;100.00;97495.44;4977201;28;20401;-85
2022/02/16 07:20:43;;;;;;;2.90;0.95;;;;;;;12.82;100.00;97515.94;4974944;28;20409;-85
2022/02/16 07:23:48;;;;;;;1.05;0.63;;;;;;;12.82;100.00;97509.63;4975709;28;20053;-85
2022/02/16 07:26:52;;;;;;;3.00;0.75;;;;;;;12.79;100.00;97507.91;4975292;28;20053;-85
2022/02/16 07:29:56;;;;;;;0.10;0.10;;;;;;;12.79;100.00;97522.63;4976311;28;20069;-85
2022/02/16 07:32:59;;;;;;;6.78;0.45;;;;;;;12.94;100.00;97522.75;4975690;28;20058;-84
2022/02/16 07:36:03;;;;;;;1.50;0.55;;;;;;;12.92;100.00;97503.00;4976575;28;20058;-86
2022/02/16 07:39:06;;;;;;;2.97;1.30;;;;;;;12.88;100.00;97515.81;4976019;28;20069;-91
2022/02/16 07:42:10;;;;;;;0.10;0.08;;;;;;;12.88;100.00;97513.78;4957133;28;20059;-88
2022/02/16 07:45:13;;;;;;;0.40;0.40;;;;;;;12.98;100.00;97510.47;4968489;28;20066;-89
2022/02/16 07:48:16;;;;;;;3.63;1.48;;;;;;;13.07;100.00;97519.13;4976104;28;20054;-91
2022/02/16 07:51:19;;;;;;;0.77;0.47;;;;;;;13.19;100.00;97517.53;4977231;28;20119;-90
2022/02/16 07:54:23;;;;;;;4.78;1.05;;;;;;;13.40;100.00;97504.25;4976855;28;20054;-88
2022/02/16 07:57:26;;;;;;;1.35;0.57;;;;;;;13.59;100.00;97501.16;4976726;28;20062;-91
2022/02/16 08:00:31;;;;;;;0.98;0.50;;;;;;;13.60;100.00;97513.81;4976294;28;20081;-91
2022/02/16 08:03:34;;;;;;;1.85;0.65;;;;;;;13.69;100.00;97516.84;4976788;28;20531;-94
2022/02/16 08:06:38;;;;;;;4.25;0.50;;;;;;;13.10;100.00;97523.63;4978786;28;20066;-93
2022/02/16 08:09:41;;;;;;;5.15;1.20;;;;;;;13.54;100.00;97527.97;4977098;28;20054;-93
2022/02/16 08:12:47;;;;;;;4.78;0.52;;;;;;;13.59;100.00;97529.88;4979410;28;20055;-89
2022/02/16 08:15:51;;;;;;;4.53;0.77;;;;;;;13.67;100.00;97553.00;4977136;28;20361;-88
2022/02/16 08:18:55;;;;;;;0.20;0.20;;;;;;;13.62;100.00;97551.13;4957660;29;20050;-81
2022/02/16 08:21:59;;;;;;;8.82;1.13;;;;;;;13.65;100.00;97544.44;4955967;28;20054;-87
2022/02/16 08:25:04;;;;;;;2.63;1.27;;;;;;;13.71;100.00;97541.47;4956244;29;20058;-88
2022/02/16 08:28:09;;;;;;;4.80;0.88;;;;;;;13.84;100.00;97543.41;4972675;28;20066;-88
2022/02/16 08:31:12;;;;;;;10.65;0.77;;;;;;;13.94;100.00;97550.72;4975490;28;20066;-88
2022/02/16 08:34:16;;;;;;;8.02;1.38;;;;;;;14.05;100.00;97552.44;4975355;28;20054;-88
2022/02/16 08:37:20;;;;;;;7.38;1.05;;;;;;;14.01;100.00;97552.03;4976972;28;20058;-88
2022/02/16 08:40:23;;;;;;;1.98;0.70;;;;;;;14.02;100.00;97564.72;4975059;28;20049;-88
2022/02/16 08:43:27;;;;;;;8.38;0.43;;;;;;;13.98;100.00;97565.09;4975255;28;20057;-89
2022/02/16 08:46:30;;;;;;;2.45;1.08;;;;;;;13.96;100.00;97583.72;4975879;28;20500;-88
2022/02/16 08:49:34;;;;;;;1.27;0.20;;;;;;;13.94;100.00;97569.53;4975182;28;20062;-88
2022/02/16 08:52:38;;;;;;;0.60;0.22;;;;;;;13.93;100.00;97568.78;4974960;28;20408;-88
2022/02/16 08:55:41;;;;;;;1.40;1.15;;;;;;;13.92;100.00;97572.16;4975145;28;20058;-91
2022/02/16 08:58:44;;;;;;;3.63;0.60;;;;;;;13.96;100.00;97566.94;4974899;28;20058;-86
2022/02/16 09:01:47;;;;;;;0.73;0.38;;;;;;;13.92;100.00;97588.94;4973699;28;20058;-85
2022/02/16 09:04:51;;;;;;;17.63;2.20;;;;;;;13.34;100.00;97603.53;4973830;28;20058;-85
2022/02/16 09:07:54;;;;;;;1.58;0.63;;;;;;;13.91;100.00;97604.22;4974065;28;20499;-86
2022/02/16 09:10:58;;;;;;;0.93;0.90;;;;;;;13.91;100.00;97615.41;4974221;28;20404;-85
2022/02/16 09:14:03;;;;;;;10.70;2.08;;;;;;;13.86;100.00;97603.06;4973709;28;20058;-84
2022/02/16 09:17:07;;;;;;;11.30;1.00;;;;;;;13.84;100.00;97604.94;4973796;28;20053;-85
2022/02/16 09:20:11;;;;;;;5.50;0.98;;;;;;;13.85;100.00;97617.63;4973559;28;20069;-85
2022/02/16 09:23:16;;;;;;;1.63;1.33;;;;;;;13.45;100.00;97620.75;4973818;28;20062;-85
2022/02/16 09:26:20;;;;;;;6.32;0.90;;;;;;;13.73;100.00;97622.03;4973979;28;20051;-85
2022/02/16 09:29:24;;;;;;;3.10;0.63;;;;;;;13.79;100.00;97620.59;4974592;28;20074;-88
2022/02/16 09:32:27;;;;;;;5.38;1.55;;;;;;;13.82;100.00;97641.13;4975213;28;20054;-87
2022/02/16 09:35:31;;;;;;;0.82;0.70;;;;;;;13.80;100.00;97626.91;4974461;28;20109;-87
2022/02/16 09:38:34;;;;;;;6.65;0.20;;;;;;;13.77;100.00;97628.78;4955133;29;20053;-88
2022/02/16 09:41:38;;;;;;;6.47;1.40;;;;;;;13.78;100.00;97647.06;4973091;28;20066;-88
2022/02/16 09:45:00;;;;;;;3.45;0.25;;;;;;;13.84;100.00;97638.53;4974723;28;20054;-88
2022/02/16 09:48:05;;;;;;;16.17;1.85;;;;;;;13.85;100.00;97651.19;4974678;28;20054;-88
2022/02/16 09:51:09;;;;;;;3.17;1.23;;;;;;;13.82;100.00;97646.72;4974805;28;20074;-87
2022/02/16 09:54:13;;;;;;;9.93;1.50;;;;;;;13.89;100.00;97651.59;4975301;28;20054;-87
2022/02/16 09:57:17;;;;;;;2.65;0.60;;;;;;;13.89;100.00;97657.94;4973888;28;20053;-87
2022/02/16 10:00:21;;;;;;;9.15;1.00;;;;;;;13.91;100.00;97643.38;4973782;28;20058;-87
2022/02/16 10:03:24;;;;;;;9.82;1.25;;;;;;;13.94;100.00;97611.50;4973452;28;20053;-88
2022/02/16 10:06:40;;;;;;;1.35;0.95;;;;;;;13.45;100.00;97581.59;4972598;28;20046;-90
2022/02/16 10:09:43;;;;;;;1.75;0.85;;;;;;;13.32;100.00;97592.16;4974734;28;20215;-88
2022/02/16 10:12:50;;;;;;;9.05;1.30;;;;;;;13.20;100.00;97572.13;4974399;28;20062;-89
2022/02/16 10:15:53;;;;;;;1.60;1.10;;;;;;;13.24;100.00;97574.56;4975084;28;20177;-87
2022/02/16 10:19:01;;;;;;;20.05;2.38;;;;;;;13.30;100.00;97575.91;4955200;29;20050;-87
2022/02/16 10:22:07;;;;;;;17.15;1.95;;;;;;;13.43;100.00;97577.84;4955194;28;20054;-87
2022/02/16 10:25:16;;;;;;;5.78;1.40;;;;;;;13.49;100.00;97576.41;4955753;29;20055;-87
2022/02/16 10:28:21;;;;;;;1.95;0.35;;;;;;;13.47;100.00;97570.63;4972799;28;20074;-87
2022/02/16 10:31:25;;;;;;;5.05;0.68;;;;;;;13.47;100.00;97573.41;4973891;28;20058;-87
2022/02/16 10:34:47;;;;;;;10.63;0.70;;;;;;;13.53;100.00;97554.44;4974484;28;20070;-88
2022/02/16 10:37:51;;;;;;;5.45;1.27;;;;;;;13.57;100.00;97537.31;4973632;28;20049;-88
2022/02/16 10:41:06;;;;;;;2.47;0.90;;;;;;;14.34;100.00;97545.41;4973603;28;20058;-88
2022/02/16 10:44:31;;;;;;;6.57;0.88;;;;;;;14.44;100.00;97529.59;4974181;28;20054;-87
2022/02/16 10:48:04;;;;;;;1.85;0.93;;;;;;;14.49;100.00;97511.84;4973799;28;20058;-88
2022/02/16 10:51:15;;;;;;;2.20;0.85;;;;;;;14.68;100.00;97501.03;4973333;28;20062;-89
2022/02/16 10:54:21;;;;;;;4.68;1.00;;;;;;;14.85;100.00;97498.41;4974242;28;20074;-88
2022/02/16 10:57:26;;;;;;;0.38;0.38;;;;;;;14.89;100.00;97526.03;4973819;28;20058;-88
2022/02/16 11:00:32;;;;;;;7.15;0.95;;;;;;;14.86;100.00;97494.28;4974160;28;20046;-86
2022/02/16 11:03:39;;;;;;;3.83;1.25;;;;;;;14.40;100.00;97515.94;4977642;28;20123;-88
2022/02/16 11:06:48;;;;;;;8.90;0.60;;;;;;;14.78;100.00;97521.56;4976943;28;20054;-90
2022/02/16 11:09:58;;;;;;;10.63;1.80;;;;;;;14.79;100.00;97495.03;4977206;28;20066;-87
2022/02/16 11:13:01;;;;;;;10.10;1.55;;;;;;;14.70;100.00;97495.63;4977116;28;20058;-88
2022/02/16 11:16:05;;;;;;;25.02;1.40;;;;;;;14.70;100.00;97481.59;4977066;28;20057;-88
2022/02/16 11:19:35;;;;;;;2.60;0.38;;;;;;;14.82;100.00;97471.50;4977050;28;20047;-89
2022/02/16 11:22:57;;;;;;;7.22;1.17;;;;;;;14.96;100.00;97458.78;4977164;28;20062;-87
2022/02/16 11:26:41;;;;;;;3.40;0.63;;;;;;;15.11;100.00;97453.16;4977322;28;20681;-88
2022/02/16 11:29:44;;;;;;;8.75;1.10;;;;;;;15.23;100.00;97436.66;4976815;28;20050;-89
2022/02/16 11:32:48;;;;;;;17.15;1.70;;;;;;;15.30;100.00;97415.50;4976881;28;20070;-87
2022/02/16 11:35:56;;;;;;;3.88;0.88;;;;;;;15.29;100.00;97425.25;4977313;28;20070;-88
2022/02/16 11:38:59;;;;;;;21.23;1.52;;;;;;;15.24;100.00;97423.38;4976680;28;20113;-88
2022/02/16 11:42:03;;;;;;;11.38;1.50;;;;;;;14.57;100.00;97411.78;4958019;28;20054;-88
2022/02/16 11:45:08;;;;;;;4.45;0.70;;;;;;;14.66;100.00;97376.84;4957245;29;20051;-87
2022/02/16 11:48:31;;;;;;;8.30;1.63;;;;;;;15.06;100.00;97378.41;4974575;28;20058;-89
2022/02/16 11:51:37;;;;;;;13.13;1.98;;;;;;;15.17;100.00;97369.56;4977159;28;20718;-88
2022/02/16 11:54:48;;;;;;;1.48;1.10;;;;;;;15.28;100.00;97359.25;4976977;28;20552;-88
2022/02/16 11:57:55;;;;;;;5.65;0.65;;;;;;;15.39;100.00;97372.84;4976497;28;20069;-87
2022/02/16 12:01:01;;;;;;;2.53;0.43;;;;;;;14.60;100.00;97379.81;4975949;28;20054;-86
2022/02/16 12:04:04;;;;;;;1.90;0.30;;;;;;;15.42;100.00;97347.19;4976461;28;20062;-87
2022/02/16 12:07:30;;;;;;;4.22;1.10;;;;;;;15.64;100.00;97360.38;4975661;28;20058;-87
2022/02/16 12:10:42;;;;;;;9.63;1.23;;;;;;;15.53;100.00;97357.25;4975623;28;20062;-86
2022/02/16 12:14:01;;;;;;;9.88;0.70;;;;;;;15.51;100.00;97357.09;4975142;28;20420;-87
2022/02/16 12:17:04;;;;;;;0.13;0.13;;;;;;;15.56;100.00;97322.47;4976940;28;20054;-92
2022/02/16 12:20:08;;;;;;;4.88;0.40;;;;;;;15.75;100.00;97311.47;4977293;28;20062;-93
2022/02/16 12:23:12;;;;;;;2.50;1.02;;;;;;;15.76;100.00;97318.59;4976083;28;20058;-93
2022/02/16 12:26:17;;;;;;;7.70;0.47;;;;;;;15.85;100.00;97310.28;4976876;28;20054;-92
2022/02/16 12:29:24;;;;;;;0.20;0.15;;;;;;;16.14;100.00;97304.97;4976147;28;20054;-90
2022/02/16 12:32:28;;;;;;;2.45;0.10;;;;;;;16.13;100.00;97311.94;4976538;28;20105;-92
2022/02/16 12:35:34;;;;;;;0.20;0.20;;;;;;;16.28;100.00;97300.56;4976057;28;20062;-92
2022/02/16 12:38:38;;;;;;;0.65;0.10;;;;;;;16.48;100.00;97295.88;4974866;28;20131;-82
2022/02/16 12:41:43;;;;;;;5.57;0.38;;;;;;;16.57;100.00;97284.72;4973828;28;20057;-81
2022/02/16 12:44:49;;;;;;;0.05;0.05;;;;;;;16.66;100.00;97266.47;4974204;28;20127;-82
2022/02/16 12:47:58;;;;;;;0.30;0.30;;;;;;;16.82;100.00;97267.03;4973918;28;20058;-84
2022/02/16 12:51:04;;;;;;;0.75;0.22;;;;;;;16.90;100.00;97248.00;4973948;28;20062;-84
2022/02/16 12:54:11;;;;;;;0.50;0.15;;;;;;;16.91;100.00;97252.28;4973727;28;20066;-82
2022/02/16 12:57:15;;;;;;;0.38;0.10;;;;;;;16.84;100.00;97227.81;4974072;28;20074;-85
2022/02/16 13:03:41;;;;;;;0.20;0.20;;;;;;;16.69;100.00;97211.91;4975437;28;20065;-86
2022/02/16 13:06:46;;;;;;;0.00;0.00;;;;;;;16.64;100.00;97191.16;4975323;28;20057;-87
2022/02/16 13:09:51;;;;;;;0.10;0.10;;;;;;;16.65;100.00;97220.75;4975295;28;20054;-88
2022/02/16 13:12:55;;;;;;;0.00;0.00;;;;;;;16.56;100.00;97229.88;4975566;28;20504;-87
2022/02/16 13:16:01;;;;;;;0.20;0.10;;;;;;;16.52;100.00;97207.03;4975078;28;20401;-86
2022/02/16 13:19:04;;;;;;;0.00;0.00;;;;;;;16.45;100.00;97213.47;4955088;29;20066;-87
2022/02/16 13:22:08;;;;;;;1.13;0.00;;;;;;;16.44;100.00;97195.13;4955415;28;20124;-87
2022/02/16 13:25:12;;;;;;;0.00;0.00;;;;;;;16.39;100.00;97190.53;4954581;28;20068;-87
2022/02/16 13:28:18;;;;;;;1.02;0.10;;;;;;;16.57;100.00;97183.56;4972327;28;20058;-91
2022/02/16 13:31:28;;;;;;;0.20;0.10;;;;;;;16.56;100.00;97182.09;4975187;28;20049;-87
2022/02/16 13:34:51;;;;;;;0.00;0.00;;;;;;;16.56;100.00;97165.25;4972094;28;20492;-85
2022/02/16 13:38:00;;;;;;;0.00;0.00;;;;;;;16.52;100.00;97155.75;4973573;28;20053;-87
2022/02/16 13:41:12;;;;;;;0.00;0.00;;;;;;;16.58;100.00;97125.31;4974138;28;20050;-87
2022/02/16 13:44:25;;;;;;;0.00;0.00;;;;;;;16.57;100.00;97141.44;4976302;28;20057;-87
2022/02/16 13:47:29;;;;;;;0.00;0.00;;;;;;;16.48;100.00;97141.34;4974312;28;20054;-88
2022/02/16 13:50:33;;;;;;;0.10;0.10;;;;;;;16.60;100.00;97119.84;4955860;29;20054;-93
2022/02/16 13:53:37;;;;;;;0.10;0.00;;;;;;;16.65;100.00;97108.34;4970425;28;20412;-85
2022/02/16 13:56:48;;;;;;;0.00;0.00;;;;;;;16.66;100.00;97121.06;4971722;28;20050;-85
2022/02/16 13:59:57;;;;;;;0.20;0.10;;;;;;;16.66;100.00;97111.91;4973946;28;20073;-90
2022/02/16 14:03:13;;;;;;;0.57;0.10;;;;;;;16.77;100.00;97088.13;4974440;28;20127;-88
2022/02/16 14:06:17;;;;;;;0.10;0.10;;;;;;;16.78;100.00;97100.88;4974024;28;20492;-87
2022/02/16 14:09:21;;;;;;;0.88;0.10;;;;;;;16.57;100.00;97082.41;4973781;28;20057;-89
2022/02/16 14:12:25;;;;;;;2.75;0.25;;;;;;;16.56;100.00;97095.00;4973819;28;20058;-89
2022/02/16 14:15:29;;;;;;;0.20;0.10;;;;;;;16.58;100.00;97086.72;4974100;28;20119;-88
2022/02/16 14:18:33;;;;;;;0.75;0.10;;;;;;;16.51;100.00;97084.75;4958914;28;20049;-89
2022/02/16 14:21:41;;;;;;;0.10;0.10;;;;;;;16.54;100.00;97066.75;4973738;28;20057;-89
2022/02/16 14:24:44;;;;;;;0.10;0.00;;;;;;;16.47;100.00;97047.16;4973536;28;20061;-91